sensor_id;sensor_type;location;lat;lon;timestamp;P1;durP1;ratioP1;P2;durP2;ratioP2
16626;SDS011;8427;52.204;7.202;2024-01-27T00:00:18;15.88;;;2.30;;
16626;SDS011;8427;52.204;7.202;2024-01-27T00:02:46;14.25;;;2.40;;
16626;SDS011;8427;52.204;7.202;2024-01-27T00:05:15;14.40;;;2.33;;
16626;SDS011;8427;52.204;7.202;2024-01-27T00:07:44;18.55;;;3.35;;
16626;SDS011;8427;52.204;7.202;2024-01-27T00:10:13;23.77;;;2.70;;
16626;SDS011;8427;52.204;7.202;2024-01-27T00:12:42;21.27;;;2.72;;
16626;SDS011;8427;52.204;7.202;2024-01-27T00:15:10;18.17;;;2.80;;
16626;SDS011;8427;52.204;7.202;2024-01-27T00:17:39;18.73;;;3.50;;
16626;SDS011;8427;52.204;7.202;2024-01-27T00:20:07;20.10;;;3.08;;
16626;SDS011;8427;52.204;7.202;2024-01-27T00:22:36;18.48;;;3.42;;
16626;SDS011;8427;52.204;7.202;2024-01-27T00:25:05;17.23;;;3.17;;
16626;SDS011;8427;52.204;7.202;2024-01-27T00:27:35;15.63;;;3.00;;
16626;SDS011;8427;52.204;7.202;2024-01-27T00:30:04;12.95;;;2.80;;
16626;SDS011;8427;52.204;7.202;2024-01-27T00:32:34;19.27;;;2.80;;
16626;SDS011;8427;52.204;7.202;2024-01-27T00:35:02;17.17;;;2.60;;
16626;SDS011;8427;52.204;7.202;2024-01-27T00:37:31;16.33;;;2.50;;
16626;SDS011;8427;52.204;7.202;2024-01-27T00:39:59;15.85;;;2.63;;
16626;SDS011;8427;52.204;7.202;2024-01-27T00:42:28;14.43;;;2.60;;
16626;SDS011;8427;52.204;7.202;2024-01-27T00:44:58;18.33;;;2.40;;
16626;SDS011;8427;52.204;7.202;2024-01-27T00:47:26;14.77;;;2.83;;
16626;SDS011;8427;52.204;7.202;2024-01-27T00:49:54;23.00;;;2.93;;
16626;SDS011;8427;52.204;7.202;2024-01-27T00:52:23;19.97;;;2.57;;
16626;SDS011;8427;52.204;7.202;2024-01-27T00:54:51;14.55;;;2.40;;
16626;SDS011;8427;52.204;7.202;2024-01-27T00:57:19;16.52;;;2.45;;
16626;SDS011;8427;52.204;7.202;2024-01-27T00:59:48;18.20;;;2.50;;
16626;SDS011;8427;52.204;7.202;2024-01-27T01:02:18;14.10;;;2.50;;
16626;SDS011;8427;52.204;7.202;2024-01-27T01:04:46;15.43;;;2.53;;
16626;SDS011;8427;52.204;7.202;2024-01-27T01:07:14;14.52;;;2.28;;
16626;SDS011;8427;52.204;7.202;2024-01-27T01:09:43;15.05;;;2.50;;
16626;SDS011;8427;52.204;7.202;2024-01-27T01:12:11;18.80;;;2.60;;
16626;SDS011;8427;52.204;7.202;2024-01-27T01:14:41;16.60;;;2.70;;
16626;SDS011;8427;52.204;7.202;2024-01-27T01:17:10;16.75;;;2.72;;
16626;SDS011;8427;52.204;7.202;2024-01-27T01:19:41;11.55;;;2.40;;
16626;SDS011;8427;52.204;7.202;2024-01-27T01:22:09;14.52;;;2.35;;
16626;SDS011;8427;52.204;7.202;2024-01-27T01:24:39;16.15;;;2.55;;
16626;SDS011;8427;52.204;7.202;2024-01-27T01:27:07;13.82;;;2.33;;
16626;SDS011;8427;52.204;7.202;2024-01-27T01:29:35;14.98;;;2.33;;
16626;SDS011;8427;52.204;7.202;2024-01-27T01:32:04;14.48;;;2.28;;
16626;SDS011;8427;52.204;7.202;2024-01-27T01:34:33;19.45;;;2.78;;
16626;SDS011;8427;52.204;7.202;2024-01-27T01:37:03;15.33;;;2.70;;
16626;SDS011;8427;52.204;7.202;2024-01-27T01:39:31;12.57;;;2.47;;
16626;SDS011;8427;52.204;7.202;2024-01-27T01:41:59;15.68;;;2.42;;
16626;SDS011;8427;52.204;7.202;2024-01-27T01:44:29;18.92;;;2.90;;
16626;SDS011;8427;52.204;7.202;2024-01-27T01:46:58;12.90;;;2.40;;
16626;SDS011;8427;52.204;7.202;2024-01-27T01:49:26;17.33;;;2.85;;
16626;SDS011;8427;52.204;7.202;2024-01-27T01:51:55;16.67;;;2.55;;
16626;SDS011;8427;52.204;7.202;2024-01-27T01:54:25;19.13;;;2.72;;
16626;SDS011;8427;52.204;7.202;2024-01-27T01:56:55;15.60;;;2.67;;
16626;SDS011;8427;52.204;7.202;2024-01-27T01:59:25;18.95;;;2.92;;
16626;SDS011;8427;52.204;7.202;2024-01-27T02:01:54;14.18;;;2.60;;
16626;SDS011;8427;52.204;7.202;2024-01-27T02:04:22;16.55;;;3.00;;
16626;SDS011;8427;52.204;7.202;2024-01-27T02:06:51;19.90;;;2.80;;
16626;SDS011;8427;52.204;7.202;2024-01-27T02:09:19;18.40;;;3.27;;
16626;SDS011;8427;52.204;7.202;2024-01-27T02:11:49;12.50;;;2.53;;
16626;SDS011;8427;52.204;7.202;2024-01-27T02:14:18;15.63;;;2.83;;
16626;SDS011;8427;52.204;7.202;2024-01-27T02:16:46;20.15;;;3.58;;
16626;SDS011;8427;52.204;7.202;2024-01-27T02:19:14;19.33;;;2.80;;
16626;SDS011;8427;52.204;7.202;2024-01-27T02:21:43;21.23;;;3.10;;
16626;SDS011;8427;52.204;7.202;2024-01-27T02:24:13;18.63;;;3.50;;
16626;SDS011;8427;52.204;7.202;2024-01-27T02:26:42;21.75;;;3.20;;
16626;SDS011;8427;52.204;7.202;2024-01-27T02:29:10;19.95;;;3.40;;
16626;SDS011;8427;52.204;7.202;2024-01-27T02:31:39;13.75;;;3.03;;
16626;SDS011;8427;52.204;7.202;2024-01-27T02:34:07;12.18;;;3.00;;
16626;SDS011;8427;52.204;7.202;2024-01-27T02:36:36;20.70;;;3.13;;
16626;SDS011;8427;52.204;7.202;2024-01-27T02:39:04;18.63;;;3.10;;
16626;SDS011;8427;52.204;7.202;2024-01-27T02:41:35;16.33;;;2.78;;
16626;SDS011;8427;52.204;7.202;2024-01-27T02:44:05;14.57;;;2.95;;
16626;SDS011;8427;52.204;7.202;2024-01-27T02:46:34;15.47;;;3.50;;
16626;SDS011;8427;52.204;7.202;2024-01-27T02:49:02;13.55;;;2.92;;
16626;SDS011;8427;52.204;7.202;2024-01-27T02:51:31;20.27;;;3.47;;
16626;SDS011;8427;52.204;7.202;2024-01-27T02:53:59;20.20;;;3.58;;
16626;SDS011;8427;52.204;7.202;2024-01-27T02:56:28;18.93;;;3.23;;
16626;SDS011;8427;52.204;7.202;2024-01-27T02:58:58;16.73;;;3.93;;
16626;SDS011;8427;52.204;7.202;2024-01-27T03:01:26;17.75;;;3.40;;
16626;SDS011;8427;52.204;7.202;2024-01-27T03:03:54;18.37;;;3.33;;
16626;SDS011;8427;52.204;7.202;2024-01-27T03:06:23;19.23;;;3.85;;
16626;SDS011;8427;52.204;7.202;2024-01-27T03:08:52;15.50;;;3.70;;
16626;SDS011;8427;52.204;7.202;2024-01-27T03:11:20;18.53;;;3.57;;
16626;SDS011;8427;52.204;7.202;2024-01-27T03:13:49;19.52;;;4.10;;
16626;SDS011;8427;52.204;7.202;2024-01-27T03:16:19;16.67;;;3.70;;
16626;SDS011;8427;52.204;7.202;2024-01-27T03:18:48;14.18;;;4.20;;
16626;SDS011;8427;52.204;7.202;2024-01-27T03:21:16;13.18;;;3.42;;
16626;SDS011;8427;52.204;7.202;2024-01-27T03:23:45;18.70;;;3.60;;
16626;SDS011;8427;52.204;7.202;2024-01-27T03:26:13;14.40;;;3.38;;
16626;SDS011;8427;52.204;7.202;2024-01-27T03:28:42;16.27;;;3.60;;
16626;SDS011;8427;52.204;7.202;2024-01-27T03:31:09;23.08;;;4.63;;
16626;SDS011;8427;52.204;7.202;2024-01-27T03:33:39;20.88;;;3.90;;
16626;SDS011;8427;52.204;7.202;2024-01-27T03:36:09;15.43;;;3.85;;
16626;SDS011;8427;52.204;7.202;2024-01-27T03:38:38;21.23;;;3.97;;
16626;SDS011;8427;52.204;7.202;2024-01-27T03:43:36;17.90;;;4.03;;
16626;SDS011;8427;52.204;7.202;2024-01-27T03:46:04;11.88;;;3.38;;
16626;SDS011;8427;52.204;7.202;2024-01-27T03:48:33;22.33;;;3.97;;
16626;SDS011;8427;52.204;7.202;2024-01-27T03:51:04;14.52;;;4.40;;
16626;SDS011;8427;52.204;7.202;2024-01-27T03:53:33;17.48;;;4.55;;
16626;SDS011;8427;52.204;7.202;2024-01-27T03:56:01;18.13;;;4.15;;
16626;SDS011;8427;52.204;7.202;2024-01-27T03:58:31;18.00;;;4.35;;
16626;SDS011;8427;52.204;7.202;2024-01-27T04:01:00;16.30;;;4.38;;
16626;SDS011;8427;52.204;7.202;2024-01-27T04:03:28;15.90;;;4.00;;
16626;SDS011;8427;52.204;7.202;2024-01-27T04:05:57;25.47;;;4.73;;
16626;SDS011;8427;52.204;7.202;2024-01-27T04:08:27;23.67;;;5.50;;
16626;SDS011;8427;52.204;7.202;2024-01-27T04:10:56;17.52;;;4.13;;
16626;SDS011;8427;52.204;7.202;2024-01-27T04:13:25;20.17;;;4.45;;
16626;SDS011;8427;52.204;7.202;2024-01-27T04:15:53;21.03;;;4.70;;
16626;SDS011;8427;52.204;7.202;2024-01-27T04:18:24;18.15;;;4.80;;
16626;SDS011;8427;52.204;7.202;2024-01-27T04:20:52;17.75;;;4.50;;
16626;SDS011;8427;52.204;7.202;2024-01-27T04:23:21;17.25;;;4.68;;
16626;SDS011;8427;52.204;7.202;2024-01-27T04:25:51;18.43;;;4.93;;
16626;SDS011;8427;52.204;7.202;2024-01-27T04:28:19;18.15;;;4.72;;
16626;SDS011;8427;52.204;7.202;2024-01-27T04:30:48;17.47;;;4.83;;
16626;SDS011;8427;52.204;7.202;2024-01-27T04:33:16;17.75;;;5.32;;
16626;SDS011;8427;52.204;7.202;2024-01-27T04:35:45;18.90;;;5.03;;
16626;SDS011;8427;52.204;7.202;2024-01-27T04:38:13;23.60;;;5.43;;
16626;SDS011;8427;52.204;7.202;2024-01-27T04:40:42;20.60;;;5.47;;
16626;SDS011;8427;52.204;7.202;2024-01-27T04:43:15;22.37;;;5.10;;
16626;SDS011;8427;52.204;7.202;2024-01-27T04:45:44;17.65;;;5.05;;
16626;SDS011;8427;52.204;7.202;2024-01-27T04:48:12;18.90;;;5.50;;
16626;SDS011;8427;52.204;7.202;2024-01-27T04:50:41;19.50;;;5.35;;
16626;SDS011;8427;52.204;7.202;2024-01-27T04:53:10;23.30;;;5.57;;
16626;SDS011;8427;52.204;7.202;2024-01-27T04:55:38;21.20;;;5.70;;
16626;SDS011;8427;52.204;7.202;2024-01-27T04:58:07;18.17;;;5.65;;
16626;SDS011;8427;52.204;7.202;2024-01-27T05:00:37;23.02;;;5.85;;
16626;SDS011;8427;52.204;7.202;2024-01-27T05:03:06;13.82;;;5.30;;
16626;SDS011;8427;52.204;7.202;2024-01-27T05:05:40;23.15;;;6.20;;
16626;SDS011;8427;52.204;7.202;2024-01-27T05:08:09;16.38;;;6.28;;
16626;SDS011;8427;52.204;7.202;2024-01-27T05:10:38;19.73;;;6.30;;
16626;SDS011;8427;52.204;7.202;2024-01-27T05:13:07;18.30;;;5.85;;
16626;SDS011;8427;52.204;7.202;2024-01-27T05:15:36;29.55;;;6.55;;
16626;SDS011;8427;52.204;7.202;2024-01-27T05:18:05;24.35;;;5.75;;
16626;SDS011;8427;52.204;7.202;2024-01-27T05:20:34;15.70;;;6.43;;
16626;SDS011;8427;52.204;7.202;2024-01-27T05:23:03;20.77;;;6.13;;
16626;SDS011;8427;52.204;7.202;2024-01-27T05:25:31;25.60;;;6.33;;
16626;SDS011;8427;52.204;7.202;2024-01-27T05:27:59;24.67;;;6.43;;
16626;SDS011;8427;52.204;7.202;2024-01-27T05:30:28;23.90;;;6.47;;
16626;SDS011;8427;52.204;7.202;2024-01-27T05:32:58;21.13;;;6.38;;
16626;SDS011;8427;52.204;7.202;2024-01-27T05:35:27;19.73;;;6.18;;
16626;SDS011;8427;52.204;7.202;2024-01-27T05:37:56;18.85;;;6.25;;
16626;SDS011;8427;52.204;7.202;2024-01-27T05:40:25;29.20;;;6.40;;
16626;SDS011;8427;52.204;7.202;2024-01-27T05:42:53;16.27;;;6.07;;
16626;SDS011;8427;52.204;7.202;2024-01-27T05:45:22;20.13;;;6.53;;
16626;SDS011;8427;52.204;7.202;2024-01-27T05:47:51;24.80;;;6.25;;
16626;SDS011;8427;52.204;7.202;2024-01-27T05:50:21;28.60;;;6.63;;
16626;SDS011;8427;52.204;7.202;2024-01-27T05:52:50;23.52;;;6.07;;
16626;SDS011;8427;52.204;7.202;2024-01-27T05:55:18;20.77;;;6.63;;
16626;SDS011;8427;52.204;7.202;2024-01-27T05:57:47;23.88;;;6.75;;
16626;SDS011;8427;52.204;7.202;2024-01-27T06:00:15;18.60;;;6.53;;
16626;SDS011;8427;52.204;7.202;2024-01-27T06:02:44;19.95;;;6.72;;
16626;SDS011;8427;52.204;7.202;2024-01-27T06:05:13;22.60;;;6.50;;
16626;SDS011;8427;52.204;7.202;2024-01-27T06:07:43;20.77;;;6.35;;
16626;SDS011;8427;52.204;7.202;2024-01-27T06:10:13;18.60;;;6.60;;
16626;SDS011;8427;52.204;7.202;2024-01-27T06:12:41;22.40;;;7.00;;
16626;SDS011;8427;52.204;7.202;2024-01-27T06:15:10;22.80;;;6.72;;
16626;SDS011;8427;52.204;7.202;2024-01-27T06:17:39;20.02;;;6.35;;
16626;SDS011;8427;52.204;7.202;2024-01-27T06:20:07;24.30;;;6.83;;
16626;SDS011;8427;52.204;7.202;2024-01-27T06:22:37;17.40;;;7.10;;
16626;SDS011;8427;52.204;7.202;2024-01-27T06:25:07;22.87;;;7.30;;
16626;SDS011;8427;52.204;7.202;2024-01-27T06:27:37;20.30;;;7.32;;
16626;SDS011;8427;52.204;7.202;2024-01-27T06:30:08;28.25;;;7.47;;
16626;SDS011;8427;52.204;7.202;2024-01-27T06:32:37;21.00;;;8.13;;
16626;SDS011;8427;52.204;7.202;2024-01-27T06:35:06;23.93;;;8.53;;
16626;SDS011;8427;52.204;7.202;2024-01-27T06:40:04;19.73;;;7.90;;
16626;SDS011;8427;52.204;7.202;2024-01-27T06:42:36;32.08;;;8.90;;
16626;SDS011;8427;52.204;7.202;2024-01-27T06:45:05;28.92;;;9.32;;
16626;SDS011;8427;52.204;7.202;2024-01-27T06:50:02;26.95;;;8.60;;
16626;SDS011;8427;52.204;7.202;2024-01-27T06:52:31;23.80;;;8.95;;
16626;SDS011;8427;52.204;7.202;2024-01-27T06:54:59;25.77;;;9.53;;
16626;SDS011;8427;52.204;7.202;2024-01-27T06:57:29;28.65;;;9.93;;
16626;SDS011;8427;52.204;7.202;2024-01-27T06:59:58;27.70;;;9.70;;
16626;SDS011;8427;52.204;7.202;2024-01-27T07:02:27;31.58;;;9.60;;
16626;SDS011;8427;52.204;7.202;2024-01-27T07:04:56;26.50;;;10.30;;
16626;SDS011;8427;52.204;7.202;2024-01-27T07:07:25;30.73;;;11.30;;
16626;SDS011;8427;52.204;7.202;2024-01-27T07:09:55;24.30;;;10.93;;
16626;SDS011;8427;52.204;7.202;2024-01-27T07:12:24;33.08;;;12.10;;
16626;SDS011;8427;52.204;7.202;2024-01-27T07:14:54;33.05;;;11.43;;
16626;SDS011;8427;52.204;7.202;2024-01-27T07:17:24;32.35;;;11.95;;
16626;SDS011;8427;52.204;7.202;2024-01-27T07:19:52;34.97;;;13.45;;
16626;SDS011;8427;52.204;7.202;2024-01-27T07:22:22;32.47;;;11.82;;
16626;SDS011;8427;52.204;7.202;2024-01-27T07:27:19;29.33;;;9.93;;
16626;SDS011;8427;52.204;7.202;2024-01-27T07:29:48;27.70;;;11.05;;
16626;SDS011;8427;52.204;7.202;2024-01-27T07:32:18;26.17;;;9.95;;
16626;SDS011;8427;52.204;7.202;2024-01-27T07:34:46;29.90;;;10.50;;
16626;SDS011;8427;52.204;7.202;2024-01-27T07:37:15;28.83;;;10.45;;
16626;SDS011;8427;52.204;7.202;2024-01-27T07:39:43;35.33;;;11.20;;
16626;SDS011;8427;52.204;7.202;2024-01-27T07:42:12;28.77;;;12.43;;
16626;SDS011;8427;52.204;7.202;2024-01-27T07:44:40;28.00;;;11.27;;
16626;SDS011;8427;52.204;7.202;2024-01-27T07:47:09;36.92;;;12.52;;
16626;SDS011;8427;52.204;7.202;2024-01-27T07:49:40;34.25;;;13.80;;
16626;SDS011;8427;52.204;7.202;2024-01-27T07:52:08;31.23;;;12.25;;
16626;SDS011;8427;52.204;7.202;2024-01-27T07:54:37;33.55;;;12.88;;
16626;SDS011;8427;52.204;7.202;2024-01-27T07:57:07;33.92;;;13.57;;
16626;SDS011;8427;52.204;7.202;2024-01-27T07:59:36;32.72;;;12.93;;
16626;SDS011;8427;52.204;7.202;2024-01-27T08:02:04;35.47;;;12.00;;
16626;SDS011;8427;52.204;7.202;2024-01-27T08:07:03;51.13;;;15.80;;
16626;SDS011;8427;52.204;7.202;2024-01-27T08:09:36;37.83;;;13.20;;
16626;SDS011;8427;52.204;7.202;2024-01-27T08:14:34;36.47;;;14.60;;
16626;SDS011;8427;52.204;7.202;2024-01-27T08:17:03;40.05;;;14.90;;
16626;SDS011;8427;52.204;7.202;2024-01-27T08:19:32;35.65;;;12.82;;
16626;SDS011;8427;52.204;7.202;2024-01-27T08:22:01;39.30;;;13.73;;
16626;SDS011;8427;52.204;7.202;2024-01-27T08:24:31;34.97;;;13.23;;
16626;SDS011;8427;52.204;7.202;2024-01-27T08:27:00;34.65;;;14.27;;
16626;SDS011;8427;52.204;7.202;2024-01-27T08:29:28;34.05;;;13.68;;
16626;SDS011;8427;52.204;7.202;2024-01-27T08:31:57;31.20;;;14.27;;
16626;SDS011;8427;52.204;7.202;2024-01-27T08:34:26;31.38;;;13.48;;
16626;SDS011;8427;52.204;7.202;2024-01-27T08:37:01;38.37;;;14.20;;
16626;SDS011;8427;52.204;7.202;2024-01-27T08:39:31;29.25;;;10.82;;
16626;SDS011;8427;52.204;7.202;2024-01-27T08:42:00;33.13;;;12.02;;
16626;SDS011;8427;52.204;7.202;2024-01-27T08:44:28;35.63;;;12.00;;
16626;SDS011;8427;52.204;7.202;2024-01-27T08:46:57;28.95;;;12.02;;
16626;SDS011;8427;52.204;7.202;2024-01-27T08:49:29;34.13;;;11.70;;
16626;SDS011;8427;52.204;7.202;2024-01-27T08:51:57;28.77;;;11.48;;
16626;SDS011;8427;52.204;7.202;2024-01-27T08:54:26;31.38;;;11.90;;
16626;SDS011;8427;52.204;7.202;2024-01-27T08:56:55;30.47;;;11.53;;
16626;SDS011;8427;52.204;7.202;2024-01-27T08:59:25;32.40;;;11.25;;
16626;SDS011;8427;52.204;7.202;2024-01-27T09:01:53;34.63;;;11.43;;
16626;SDS011;8427;52.204;7.202;2024-01-27T09:04:22;27.60;;;10.85;;
16626;SDS011;8427;52.204;7.202;2024-01-27T09:06:50;27.53;;;11.07;;
16626;SDS011;8427;52.204;7.202;2024-01-27T09:09:19;28.77;;;10.70;;
16626;SDS011;8427;52.204;7.202;2024-01-27T09:11:47;29.65;;;10.10;;
16626;SDS011;8427;52.204;7.202;2024-01-27T09:14:18;30.65;;;10.90;;
16626;SDS011;8427;52.204;7.202;2024-01-27T09:16:46;28.20;;;10.82;;
16626;SDS011;8427;52.204;7.202;2024-01-27T09:19:15;24.80;;;11.00;;
16626;SDS011;8427;52.204;7.202;2024-01-27T09:21:43;27.92;;;10.52;;
16626;SDS011;8427;52.204;7.202;2024-01-27T09:24:12;21.52;;;9.63;;
16626;SDS011;8427;52.204;7.202;2024-01-27T09:26:42;27.90;;;11.07;;
16626;SDS011;8427;52.204;7.202;2024-01-27T09:29:09;29.95;;;10.90;;
16626;SDS011;8427;52.204;7.202;2024-01-27T09:31:39;25.90;;;10.23;;
16626;SDS011;8427;52.204;7.202;2024-01-27T09:34:08;24.35;;;10.07;;
16626;SDS011;8427;52.204;7.202;2024-01-27T09:36:36;27.33;;;10.57;;
16626;SDS011;8427;52.204;7.202;2024-01-27T09:39:05;23.17;;;10.03;;
16626;SDS011;8427;52.204;7.202;2024-01-27T09:41:33;25.93;;;10.73;;
16626;SDS011;8427;52.204;7.202;2024-01-27T09:44:02;23.55;;;10.18;;
16626;SDS011;8427;52.204;7.202;2024-01-27T09:46:31;29.60;;;10.50;;
16626;SDS011;8427;52.204;7.202;2024-01-27T09:49:02;22.73;;;9.88;;
16626;SDS011;8427;52.204;7.202;2024-01-27T09:51:31;23.35;;;9.55;;
